Time;durP1;ratioP1;P1;durP2;ratioP2;P2;SDS_P1;SDS_P2;PMS_P1;PMS_P2;Temp;Humidity;BMP_temperature;BMP_pressure;BME280_temperature;BME280_humidity;BME280_pressure;Samples;Min_cycle;Max_cycle;Signal;HPM_P1;HPM_P2
2022/05/22 00:00:50;;;;;;;11.88;5.40;;;;;;;11.49;nan;100757.44;10455509;28;20037;-76
2022/05/22 00:05:53;;;;;;;8.23;4.10;;;;;;;11.53;nan;100760.72;10454189;28;20041;-76
2022/05/22 00:10:57;;;;;;;;;;;;;;;11.33;nan;100758.75;10455611;28;20484;-76
2022/05/22 00:21:21;;;;;;;8.60;4.30;;;;;;;11.40;nan;100749.22;10454211;28;20076;-76
2022/05/22 00:26:25;;;;;;;;;;;;;;;11.23;nan;100746.00;10454596;28;20482;-77
2022/05/22 00:31:28;;;;;;;10.75;4.75;;;;;;;11.04;nan;100751.06;10459201;28;19925;-77
2022/05/22 00:36:31;;;;;;;7.30;4.63;;;;;;;10.90;nan;100745.91;10453116;28;20045;-77
2022/05/22 00:41:36;;;;;;;10.57;4.80;;;;;;;10.87;nan;100733.56;10452418;28;20048;-77
2022/05/22 00:46:39;;;;;;;6.68;4.43;;;;;;;10.91;nan;100737.72;10445419;28;20118;-77
2022/05/22 00:51:44;;;;;;;;;;;;;;;10.92;nan;100736.75;10452319;28;20075;-76
2022/05/22 00:56:52;;;;;;;16.15;5.38;;;;;;;10.98;nan;100730.91;10452296;28;19947;-76
2022/05/22 01:01:59;;;;;;;14.23;5.70;;;;;;;10.86;nan;100728.28;10452138;28;20064;-76
2022/05/22 01:07:08;;;;;;;10.70;4.90;;;;;;;10.66;nan;100735.19;10451566;28;20150;-76
2022/05/22 01:12:17;;;;;;;10.23;5.28;;;;;;;10.46;nan;100744.78;10451345;28;20052;-76
2022/05/22 01:17:23;;;;;;;12.35;5.28;;;;;;;10.53;nan;100743.31;10432902;28;20041;-77
2022/05/22 01:22:28;;;;;;;11.70;6.03;;;;;;;10.36;nan;100745.44;10451607;28;20118;-77
2022/05/22 01:27:31;;;;;;;14.00;5.85;;;;;;;10.47;nan;100741.94;10431841;28;20053;-77
2022/05/22 01:32:46;;;;;;;12.77;5.32;;;;;;;10.63;nan;100733.59;10450929;28;20473;-77
2022/05/22 01:37:52;;;;;;;10.50;5.85;;;;;;;10.78;nan;100726.22;10447174;28;20049;-76
2022/05/22 01:42:56;;;;;;;9.18;5.70;;;;;;;10.91;nan;100720.75;10450832;28;20210;-77
2022/05/22 01:47:59;;;;;;;10.85;4.88;;;;;;;10.95;nan;100728.47;10450309;28;20045;-76
2022/05/22 01:53:30;;;;;;;9.75;4.95;;;;;;;10.89;nan;100730.75;10451294;28;20164;-77
2022/05/22 01:58:35;;;;;;;7.72;4.65;;;;;;;10.83;nan;100715.94;10448054;28;20045;-77
2022/05/22 02:03:38;;;;;;;11.23;5.50;;;;;;;10.89;nan;100712.81;10451564;28;20043;-77
2022/05/22 02:08:44;;;;;;;11.27;4.78;;;;;;;10.81;nan;100705.34;10431061;28;20053;-77
2022/05/22 02:13:48;;;;;;;11.38;5.60;;;;;;;10.80;nan;100710.81;10452107;28;20045;-77
2022/05/22 02:18:51;;;;;;;10.05;5.32;;;;;;;10.68;nan;100704.56;10447043;28;20429;-76
2022/05/22 02:23:56;;;;;;;10.45;5.45;;;;;;;10.43;nan;100710.94;10449638;28;20081;-75
2022/05/22 02:28:59;;;;;;;10.35;5.57;;;;;;;10.14;nan;100710.41;10451581;28;20049;-75
2022/05/22 02:34:03;;;;;;;15.52;5.45;;;;;;;9.90;nan;100711.28;10459240;28;20041;-76
2022/05/22 02:39:07;;;;;;;12.82;6.07;;;;;;;9.45;nan;100720.75;10458512;28;20056;-76
2022/05/22 02:44:10;;;;;;;14.48;6.63;;;;;;;9.57;nan;100727.94;10457227;28;20084;-75
2022/05/22 02:49:13;;;;;;;9.85;5.90;;;;;;;9.62;nan;100728.44;10456695;28;20052;-75
2022/05/22 02:54:18;;;;;;;10.60;6.43;;;;;;;9.58;nan;100728.81;10458321;28;20587;-77
2022/05/22 02:59:34;;;;;;;9.10;5.13;;;;;;;9.78;nan;100712.13;10456445;28;20041;-76
2022/05/22 03:04:43;;;;;;;8.05;4.90;;;;;;;9.91;nan;100702.25;10458095;28;20103;-76
2022/05/22 03:09:50;;;;;;;8.68;5.30;;;;;;;9.93;nan;100707.50;10456107;28;20335;-76
2022/05/22 03:14:56;;;;;;;11.32;6.53;;;;;;;9.88;nan;100702.47;10464196;28;20037;-77
2022/05/22 03:20:01;;;;;;;12.25;5.72;;;;;;;9.75;nan;100695.41;10459772;28;20063;-76
2022/05/22 03:25:09;;;;;;;8.77;5.38;;;;;;;9.68;nan;100703.91;10456041;28;20048;-76
2022/05/22 03:30:12;;;;;;;11.52;5.85;;;;;;;9.68;nan;100693.16;10478854;22;20045;-78
2022/05/22 03:35:19;;;;;;;11.70;5.25;;;;;;;9.70;nan;100693.03;10507751;28;20063;-78
2022/05/22 03:40:30;;;;;;;12.30;5.70;;;;;;;9.67;nan;100704.00;10497637;28;20408;-78
2022/05/22 03:45:33;;;;;;;11.95;5.40;;;;;;;9.75;nan;100696.25;10455271;28;20063;-79
2022/05/22 03:50:38;;;;;;;5.50;4.68;;;;;;;9.84;nan;100684.84;10470692;28;20052;-80
2022/05/22 03:55:43;;;;;;;8.82;5.30;;;;;;;9.87;nan;100673.94;10480711;28;20060;-79
2022/05/22 04:00:47;;;;;;;10.68;6.53;;;;;;;9.96;nan;100687.66;10470019;28;20098;-80
2022/05/22 04:05:50;;;;;;;9.88;5.80;;;;;;;9.88;nan;100677.47;10478196;28;20521;-79
2022/05/22 04:10:54;;;;;;;14.15;6.45;;;;;;;9.94;nan;100683.22;10483917;28;20210;-80
2022/05/22 04:15:58;;;;;;;12.82;6.85;;;;;;;10.08;nan;100681.34;10483236;28;20436;-79
2022/05/22 04:21:02;;;;;;;10.48;6.22;;;;;;;10.13;nan;100669.31;10459999;28;20115;-79
2022/05/22 04:26:31;;;;;;;11.60;6.90;;;;;;;10.25;nan;100685.47;10468722;28;20045;-79
2022/05/22 04:31:36;;;;;;;12.32;6.57;;;;;;;10.29;nan;100701.25;10475494;28;20064;-79
2022/05/22 04:36:46;;;;;;;12.05;7.07;;;;;;;10.28;nan;100701.34;10445585;28;20123;-79
2022/05/22 04:42:15;;;;;;;12.27;7.15;;;;;;;10.38;nan;100688.94;10485321;28;20052;-79
2022/05/22 04:47:19;;;;;;;6.68;5.40;;;;;;;10.38;nan;100697.84;10501659;28;20127;-79
2022/05/22 04:52:42;;;;;;;14.05;6.65;;;;;;;10.28;nan;100704.03;10481721;28;20052;-79
2022/05/22 04:57:47;;;;;;;12.90;6.80;;;;;;;10.48;nan;100697.19;10480480;28;20064;-79
2022/05/22 05:02:50;;;;;;;9.65;6.28;;;;;;;10.74;nan;100701.41;10497785;28;20040;-79
2022/05/22 05:07:53;;;;;;;10.95;6.28;;;;;;;10.78;nan;100707.41;10464914;28;20049;-79
2022/05/22 05:13:16;;;;;;;13.02;6.95;;;;;;;10.96;nan;100705.13;10482358;28;20049;-79
2022/05/22 05:18:20;;;;;;;11.75;6.80;;;;;;;11.08;nan;100701.50;10468331;28;20048;-78
2022/05/22 05:23:24;;;;;;;10.23;6.80;;;;;;;11.21;nan;100707.63;10462990;28;20052;-79
2022/05/22 05:28:40;;;;;;;11.63;6.35;;;;;;;11.37;nan;100704.59;10466140;28;20067;-78
2022/05/22 05:33:45;;;;;;;13.35;7.68;;;;;;;11.47;nan;100702.03;10461847;28;20045;-79
2022/05/22 05:39:23;;;;;;;10.60;7.15;;;;;;;11.58;nan;100702.03;10422243;28;20063;-78
2022/05/22 05:44:40;;;;;;;11.35;6.60;;;;;;;11.63;nan;100701.66;10474246;28;20055;-78
2022/05/22 05:50:13;;;;;;;16.38;6.18;;;;;;;11.68;nan;100704.81;10501305;28;20059;-79
2022/05/22 05:55:24;;;;;;;17.10;6.95;;;;;;;11.85;nan;100688.19;10487232;28;20040;-78
2022/05/22 06:01:07;;;;;;;13.10;6.57;;;;;;;12.02;nan;100685.94;10460764;28;20049;-79
2022/05/22 06:06:14;;;;;;;11.77;6.55;;;;;;;12.28;nan;100681.06;10467313;28;20041;-79
2022/05/22 06:11:18;;;;;;;12.90;6.38;;;;;;;12.45;nan;100683.25;10476255;28;20575;-79
2022/05/22 06:16:22;;;;;;;9.77;5.30;;;;;;;12.62;nan;100671.03;10486360;28;20033;-79
2022/05/22 06:21:33;;;;;;;13.17;5.10;;;;;;;12.88;nan;100671.47;10462612;28;20064;-79
2022/05/22 06:26:37;;;;;;;13.00;4.40;;;;;;;13.01;nan;100661.34;10500269;28;20056;-79
2022/05/22 06:32:14;;;;;;;11.55;4.25;;;;;;;13.08;nan;100664.34;10483839;28;20106;-79
2022/05/22 06:37:56;;;;;;;12.73;4.53;;;;;;;13.34;nan;100670.16;10477560;28;20187;-78
2022/05/22 06:43:17;;;;;;;8.27;2.60;;;;;;;13.64;nan;100657.69;10489283;28;20557;-80
2022/05/22 06:48:40;;;;;;;14.98;3.65;;;;;;;14.13;nan;100662.16;10492399;28;20049;-79
2022/05/22 06:54:06;;;;;;;5.53;2.22;;;;;;;14.91;nan;100647.78;10460443;28;20084;-79
2022/05/22 06:59:26;;;;;;;9.30;2.92;;;;;;;15.15;nan;100653.53;10470571;28;20119;-79
2022/05/22 07:04:59;;;;;;;8.43;2.40;;;;;;;15.10;nan;100653.13;10485748;28;20091;-79
2022/05/22 07:11:38;;;;;;;10.65;2.65;;;;;;;15.44;nan;100660.72;10487194;28;20119;-79
2022/05/22 07:16:06;;;;;;;9.07;2.20;;;;;;;14.89;nan;100677.69;10481994;28;20051;-79
2022/05/22 07:21:44;;;;;;;7.47;1.58;;;;;;;15.77;nan;100670.13;10457948;28;20040;-79
2022/05/22 07:27:05;;;;;;;6.47;2.03;;;;;;;14.86;nan;100664.41;10451280;28;20112;-79
2022/05/22 07:32:22;;;;;;;5.88;2.20;;;;;;;14.60;nan;100661.50;10468251;28;20072;-78
2022/05/22 07:38:01;;;;;;;6.88;2.05;;;;;;;18.26;nan;100657.91;10455343;28;20055;-78
2022/05/22 07:43:30;;;;;;;8.73;2.25;;;;;;;22.53;nan;100636.34;10478641;28;20059;-79
2022/05/22 07:48:45;;;;;;;9.73;2.70;;;;;;;23.30;nan;100644.72;10463398;28;20056;-77
2022/05/22 07:54:12;;;;;;;8.30;2.50;;;;;;;20.80;nan;100655.09;10463661;28;20060;-79
2022/05/22 07:59:43;;;;;;;9.82;2.45;;;;;;;18.60;nan;100651.47;10476765;28;20037;-78
2022/05/22 08:05:17;;;;;;;7.78;2.20;;;;;;;18.49;nan;100655.38;10527168;28;20084;-77
2022/05/22 08:10:25;;;;;;;6.80;2.30;;;;;;;18.84;nan;100656.06;10497480;28;20053;-78
2022/05/22 08:15:36;;;;;;;5.90;2.22;;;;;;;18.58;nan;100657.91;10462862;28;20136;-79
2022/05/22 08:20:55;;;;;;;10.65;2.80;;;;;;;18.19;nan;100660.44;10454829;28;20128;-79
2022/05/22 08:26:01;;;;;;;6.28;1.90;;;;;;;18.90;nan;100648.06;10483063;28;20524;-79
2022/05/22 08:31:08;;;;;;;8.27;2.30;;;;;;;19.39;nan;100634.31;10487273;28;20108;-79
2022/05/22 08:36:13;;;;;;;8.02;2.28;;;;;;;18.82;nan;100633.63;10465454;28;20104;-79
2022/05/22 08:41:21;;;;;;;6.57;2.13;;;;;;;19.23;nan;100628.94;10480516;28;20053;-80
2022/05/22 08:46:34;;;;;;;5.20;1.40;;;;;;;18.63;nan;100630.22;10466311;28;20037;-79
2022/05/22 08:51:42;;;;;;;9.38;1.48;;;;;;;18.61;nan;100623.25;10475855;28;20045;-78
2022/05/22 09:02:36;;;;;;;7.40;1.38;;;;;;;18.96;nan;100622.03;10484630;28;20053;-78
2022/05/22 09:07:47;;;;;;;4.60;1.38;;;;;;;19.04;nan;100615.72;10474958;28;20029;-80
2022/05/22 09:13:15;;;;;;;5.10;1.20;;;;;;;18.93;nan;100614.22;10463220;28;20036;-79
2022/05/22 09:18:41;;;;;;;7.05;1.90;;;;;;;20.15;nan;100596.44;10482717;28;20048;-78
2022/05/22 09:23:57;;;;;;;3.35;1.35;;;;;;;20.61;nan;100595.56;10485866;28;20052;-78
2022/05/22 09:29:15;;;;;;;5.25;1.45;;;;;;;21.02;nan;100591.38;10478974;28;20064;-77
2022/05/22 09:34:26;;;;;;;3.30;1.20;;;;;;;20.97;nan;100585.63;10560129;22;20036;-75
2022/05/22 09:39:45;;;;;;;9.80;1.75;;;;;;;19.79;nan;100591.56;10534537;28;20040;-76
2022/05/22 09:45:26;;;;;;;4.20;1.10;;;;;;;18.68;nan;100589.75;10534723;28;20073;-76
2022/05/22 09:50:35;;;;;;;8.82;1.48;;;;;;;19.80;nan;100586.97;10531811;28;20131;-76
2022/05/22 09:55:44;;;;;;;5.47;1.70;;;;;;;21.19;nan;100580.28;10533190;28;20135;-76
2022/05/22 10:00:57;;;;;;;4.78;1.30;;;;;;;21.92;nan;100572.16;10535399;28;20126;-76
2022/05/22 10:06:10;;;;;;;5.93;1.30;;;;;;;20.59;nan;100576.66;10531961;28;20055;-76
2022/05/22 10:11:16;;;;;;;;;;;;;;;21.11;nan;100574.94;10536632;28;20155;-76
2022/05/22 10:16:35;;;;;;;4.03;1.20;;;;;;;20.99;nan;100561.72;10534525;28;20459;-76
2022/05/22 10:21:47;;;;;;;5.00;1.40;;;;;;;20.71;nan;100557.97;10535645;28;20051;-76
2022/05/22 10:27:04;;;;;;;6.53;1.45;;;;;;;20.83;nan;100555.59;10536205;28;20131;-76
2022/05/22 10:32:16;;;;;;;5.35;1.60;;;;;;;22.51;nan;100552.72;10534176;28;20040;-76
2022/05/22 10:37:25;;;;;;;5.22;1.35;;;;;;;23.29;nan;100549.88;10532909;28;20126;-76
2022/05/22 10:42:49;;;;;;;5.85;1.75;;;;;;;22.53;nan;100542.44;10537388;28;20123;-76
2022/05/22 10:47:55;;;;;;;5.80;1.50;;;;;;;23.20;nan;100538.22;10543001;28;20036;-76
2022/05/22 10:52:58;;;;;;;5.05;1.60;;;;;;;21.70;nan;100536.56;10539006;28;20048;-78
2022/05/22 10:58:02;;;;;;;4.50;1.77;;;;;;;21.69;nan;100532.13;10542713;28;20472;-77
2022/05/22 11:03:14;;;;;;;7.30;1.63;;;;;;;22.72;nan;100522.56;10542441;28;20126;-78
2022/05/22 11:08:26;;;;;;;6.68;1.55;;;;;;;21.67;nan;100518.69;10539607;28;20050;-78
2022/05/22 11:13:29;;;;;;;8.15;1.58;;;;;;;23.52;nan;100501.00;10545251;28;20115;-77
2022/05/22 11:18:33;;;;;;;5.20;1.50;;;;;;;25.06;nan;100501.88;10541518;28;20524;-77
2022/05/22 11:23:53;;;;;;;5.15;1.48;;;;;;;25.21;nan;100491.44;10542789;28;20152;-76
2022/05/22 11:29:20;;;;;;;9.98;1.67;;;;;;;25.52;nan;100485.13;10541791;28;20036;-77
2022/05/22 11:34:59;;;;;;;2.83;1.30;;;;;;;26.13;nan;100482.81;10530724;28;20135;-77
2022/05/22 11:40:14;;;;;;;5.60;1.65;;;;;;;25.69;nan;100482.72;10539109;28;20559;-77
2022/05/22 11:45:32;;;;;;;4.75;1.85;;;;;;;25.79;nan;100479.50;10522192;28;20122;-77
2022/05/22 11:50:47;;;;;;;7.65;1.40;;;;;;;26.50;nan;100464.50;10538839;28;20052;-77
2022/05/22 11:56:06;;;;;;;4.20;1.15;;;;;;;22.93;nan;100474.25;10539224;28;20130;-77
2022/05/22 12:01:16;;;;;;;5.25;1.95;;;;;;;23.91;nan;100466.50;10500625;28;20051;-77
2022/05/22 12:06:37;;;;;;;6.85;1.80;;;;;;;23.67;nan;100451.50;10538357;28;20127;-77
2022/05/22 12:11:53;;;;;;;3.92;1.23;;;;;;;23.65;nan;100448.13;10541133;28;20048;-77
2022/05/22 12:17:02;;;;;;;3.33;1.15;;;;;;;24.31;nan;100430.81;10521288;28;20143;-77
2022/05/22 12:22:16;;;;;;;4.15;1.52;;;;;;;23.62;nan;100435.66;10535367;28;20398;-77
2022/05/22 12:27:26;;;;;;;5.85;1.10;;;;;;;24.76;nan;100428.19;10537993;28;20043;-77
2022/05/22 12:32:33;;;;;;;3.58;1.40;;;;;;;24.98;nan;100417.72;10535480;28;20123;-77
2022/05/22 12:37:41;;;;;;;5.53;1.35;;;;;;;23.52;nan;100429.75;10537753;28;20471;-77
2022/05/22 12:42:53;;;;;;;4.97;1.48;;;;;;;25.28;nan;100419.94;10537611;28;20036;-77
2022/05/22 12:48:09;;;;;;;3.90;1.10;;;;;;;26.20;nan;100412.88;10534199;28;20036;-77
2022/05/22 12:53:20;;;;;;;4.57;1.25;;;;;;;25.29;nan;100416.97;10539594;28;20108;-77
2022/05/22 12:58:35;;;;;;;5.27;1.43;;;;;;;24.02;nan;100405.50;10547886;28;20060;-77
2022/05/22 13:03:42;;;;;;;5.07;1.55;;;;;;;26.23;nan;100395.94;10545640;28;20044;-77
2022/05/22 13:08:58;;;;;;;4.20;1.20;;;;;;;26.07;nan;100379.97;10536600;28;20576;-77
2022/05/22 13:14:01;;;;;;;6.18;1.27;;;;;;;26.94;nan;100369.69;10531202;28;20087;-76
2022/05/22 13:19:04;;;;;;;5.00;1.70;;;;;;;26.80;nan;100370.09;10518153;28;20159;-77
2022/05/22 13:24:27;;;;;;;3.88;1.38;;;;;;;26.42;nan;100368.44;10533497;28;20067;-76
2022/05/22 13:29:42;;;;;;;3.60;1.17;;;;;;;27.26;nan;100354.81;10534940;28;20064;-76
2022/05/22 13:34:50;;;;;;;3.60;1.10;;;;;;;27.93;nan;100347.13;10538039;28;20036;-77
2022/05/22 13:40:00;;;;;;;7.95;1.42;;;;;;;27.73;nan;100349.41;10534187;28;20511;-78
2022/05/22 13:45:24;;;;;;;5.70;1.88;;;;;;;27.80;nan;100341.84;10537854;28;20079;-77
2022/05/22 13:55:53;;;;;;;4.65;1.73;;;;;;;27.28;nan;100339.72;10535814;28;20478;-79
2022/05/22 14:00:58;;;;;;;3.08;1.30;;;;;;;26.74;nan;100333.25;10535675;28;20148;-77
2022/05/22 14:06:06;;;;;;;3.53;2.00;;;;;;;27.59;nan;100335.84;10536048;28;20042;-76
2022/05/22 14:11:22;;;;;;;3.10;1.35;;;;;;;28.16;nan;100326.13;10535461;28;20525;-76
2022/05/22 14:16:27;;;;;;;5.07;1.70;;;;;;;27.64;nan;100328.75;10534472;28;20040;-76
2022/05/22 14:21:33;;;;;;;4.63;1.45;;;;;;;26.77;nan;100313.53;10516592;28;20472;-77
2022/05/22 14:26:37;;;;;;;6.30;1.63;;;;;;;26.68;nan;100309.41;10539029;28;20088;-78
2022/05/22 14:31:45;;;;;;;6.63;1.65;;;;;;;26.15;nan;100310.03;10540207;28;20040;-77
2022/05/22 14:36:52;;;;;;;4.70;1.27;;;;;;;26.19;nan;100308.50;10543055;28;20114;-78
2022/05/22 14:42:03;;;;;;;4.40;1.60;;;;;;;25.80;nan;100294.09;10544371;28;20108;-77
2022/05/22 14:47:06;;;;;;;2.17;1.00;;;;;;;26.17;nan;100291.41;10541433;28;20040;-77
2022/05/22 14:52:18;;;;;;;5.05;1.40;;;;;;;26.74;nan;100298.31;10541884;28;20126;-78
2022/05/22 14:57:28;;;;;;;3.83;1.15;;;;;;;26.15;nan;100288.84;10540184;28;20477;-78
2022/05/22 15:02:45;;;;;;;4.53;1.17;;;;;;;24.97;nan;100282.28;10539993;28;20051;-77
2022/05/22 15:07:53;;;;;;;3.97;1.40;;;;;;;25.98;nan;100282.28;10541504;28;20063;-77
2022/05/22 15:13:00;;;;;;;4.90;1.40;;;;;;;26.15;nan;100279.78;10539044;28;20488;-78
2022/05/22 15:18:05;;;;;;;3.78;1.73;;;;;;;26.69;nan;100261.50;10539900;28;20119;-77
2022/05/22 15:28:49;;;;;;;4.47;1.17;;;;;;;26.36;nan;100251.78;10498078;28;20068;-77
2022/05/22 15:33:55;;;;;;;6.63;1.48;;;;;;;26.53;nan;100240.97;10532656;22;20136;-82
2022/05/22 15:39:02;;;;;;;5.75;1.60;;;;;;;26.35;nan;100241.84;10509390;28;20040;-79
2022/05/22 15:44:22;;;;;;;3.50;1.40;;;;;;;26.56;nan;100236.91;10463378;28;20072;-79
2022/05/22 15:54:49;;;;;;;4.93;1.25;;;;;;;27.14;nan;100228.81;10466045;28;20123;-78
2022/05/22 15:59:53;;;;;;;2.33;1.27;;;;;;;27.33;nan;100228.72;10462108;28;20041;-78
2022/05/22 16:05:00;;;;;;;3.20;1.30;;;;;;;27.22;nan;100226.78;10465534;28;20128;-79
2022/05/22 16:10:04;;;;;;;3.22;1.20;;;;;;;26.58;nan;100226.50;10468480;28;20069;-79
2022/05/22 16:15:10;;;;;;;2.97;1.27;;;;;;;26.42;nan;100222.50;10447842;28;20068;-79
2022/05/22 16:20:19;;;;;;;3.80;1.60;;;;;;;26.18;nan;100211.31;10464287;28;20041;-79
2022/05/22 16:25:22;;;;;;;3.13;1.45;;;;;;;25.88;nan;100200.28;10469228;28;20065;-78
2022/05/22 16:30:27;;;;;;;5.22;1.70;;;;;;;26.70;nan;100189.63;10466927;28;20041;-78
2022/05/22 16:35:31;;;;;;;4.63;1.50;;;;;;;27.04;nan;100178.97;10466522;28;20041;-79
2022/05/22 16:40:34;;;;;;;4.97;1.15;;;;;;;27.74;nan;100175.34;10462926;28;20485;-79
2022/05/22 16:46:02;;;;;;;3.13;1.23;;;;;;;30.20;nan;100158.16;10466673;28;20486;-79
2022/05/22 16:56:30;;;;;;;1.98;1.17;;;;;;;34.09;nan;100147.44;10446322;28;20060;-79
2022/05/22 17:01:34;;;;;;;3.40;1.42;;;;;;;32.65;nan;100142.19;10469858;28;20099;-78
2022/05/22 17:06:41;;;;;;;4.85;1.48;;;;;;;32.77;nan;100127.16;10473939;28;20029;-79
2022/05/22 17:11:48;;;;;;;5.20;1.67;;;;;;;32.97;nan;100129.09;10466001;28;20076;-79
2022/05/22 17:16:53;;;;;;;3.40;1.48;;;;;;;31.77;nan;100120.00;10470026;28;20040;-79
2022/05/22 17:22:00;;;;;;;4.63;1.75;;;;;;;30.80;nan;100119.38;10471091;28;20071;-79
2022/05/22 17:27:05;;;;;;;5.00;1.95;;;;;;;30.09;nan;100125.88;10468242;28;20458;-79
2022/05/22 17:32:11;;;;;;;5.93;1.45;;;;;;;29.21;nan;100120.31;10464137;28;20068;-79
2022/05/22 17:37:21;;;;;;;3.55;1.20;;;;;;;29.35;nan;100106.97;10465618;28;20065;-80
2022/05/22 17:42:26;;;;;;;4.45;1.20;;;;;;;28.21;nan;100119.16;10448246;28;20477;-79
2022/05/22 17:47:30;;;;;;;3.78;1.20;;;;;;;26.19;nan;100124.06;10467819;28;20037;-78
2022/05/22 17:52:34;;;;;;;3.40;1.10;;;;;;;24.32;nan;100112.22;10462326;28;20060;-78
2022/05/22 17:57:37;;;;;;;3.92;0.98;;;;;;;22.49;nan;100114.19;10448085;28;20497;-78
2022/05/22 18:02:41;;;;;;;5.78;1.15;;;;;;;21.77;nan;100126.59;10437632;28;20080;-78
2022/05/22 18:07:46;;;;;;;2.08;1.23;;;;;;;21.56;nan;100114.72;10450306;28;20505;-78
2022/05/22 18:18:12;;;;;;;3.60;1.40;;;;;;;20.93;nan;100128.38;10428328;28;20462;-78
2022/05/22 18:23:15;;;;;;;4.88;1.58;;;;;;;20.58;nan;100123.88;10457887;28;20037;-78
2022/05/22 18:28:20;;;;;;;3.40;1.42;;;;;;;20.26;nan;100121.44;10436084;28;20076;-78
2022/05/22 18:33:25;;;;;;;5.20;1.23;;;;;;;20.13;nan;100119.44;10452522;28;20551;-78
2022/05/22 18:38:29;;;;;;;5.70;1.10;;;;;;;19.90;nan;100119.59;10455225;28;20073;-78
2022/05/22 18:43:34;;;;;;;3.13;1.25;;;;;;;19.63;nan;100117.56;10454764;28;20072;-77
2022/05/22 18:48:42;;;;;;;1.48;1.10;;;;;;;19.43;nan;100109.13;10451568;28;20540;-78
2022/05/22 18:53:46;;;;;;;2.92;1.35;;;;;;;19.20;nan;100115.53;10453904;28;20061;-77
2022/05/22 18:58:49;;;;;;;2.95;1.13;;;;;;;18.88;nan;100111.25;10439547;28;20041;-78
2022/05/22 19:03:53;;;;;;;5.30;1.42;;;;;;;18.77;nan;100119.84;10459044;28;20079;-77
2022/05/22 19:08:56;;;;;;;5.57;1.50;;;;;;;18.71;nan;100115.16;10455121;28;20072;-77
2022/05/22 19:14:04;;;;;;;3.47;1.30;;;;;;;18.55;nan;100092.50;10458009;28;20076;-78
2022/05/22 19:19:09;;;;;;;6.10;1.35;;;;;;;18.30;nan;100100.00;10463107;28;20466;-78
2022/05/22 19:24:12;;;;;;;5.68;1.20;;;;;;;18.19;nan;100097.72;10443605;28;20045;-77
2022/05/22 19:29:20;;;;;;;3.40;1.40;;;;;;;18.17;nan;100086.19;10460145;28;20045;-78
2022/05/22 19:34:26;;;;;;;2.47;1.27;;;;;;;18.06;nan;100090.16;10462007;28;20554;-77
2022/05/22 19:39:29;;;;;;;2.30;1.25;;;;;;;17.90;nan;100082.91;10463725;28;20132;-78
2022/05/22 19:44:37;;;;;;;4.25;1.20;;;;;;;17.75;nan;100068.44;10465595;28;20045;-77
2022/05/22 19:49:41;;;;;;;4.70;1.23;;;;;;;17.72;nan;100066.06;10459994;28;20502;-77
2022/05/22 20:00:07;;;;;;;2.58;1.40;;;;;;;17.41;nan;100056.03;10439095;28;20101;-76
2022/05/22 20:05:16;;;;;;;3.88;1.40;;;;;;;17.17;nan;100050.72;10456838;28;20115;-76
2022/05/22 20:10:21;;;;;;;4.93;1.80;;;;;;;17.03;nan;100039.53;10455954;28;20128;-76
2022/05/22 20:15:23;;;;;;;5.18;1.33;;;;;;;16.96;nan;100041.25;10457269;28;20071;-76
2022/05/22 20:20:30;;;;;;;2.80;2.30;;;;;;;16.77;nan;100047.06;10455142;28;20127;-77
2022/05/22 20:25:34;;;;;;;5.97;1.92;;;;;;;16.70;nan;100046.06;10456673;28;20045;-76
2022/05/22 20:30:37;;;;;;;7.38;2.08;;;;;;;16.62;nan;100038.81;10458409;28;20458;-77
2022/05/22 20:35:42;;;;;;;4.38;1.63;;;;;;;16.44;nan;100030.84;10439300;28;20075;-77
2022/05/22 20:40:45;;;;;;;6.25;1.80;;;;;;;16.34;nan;100013.91;10441102;28;20041;-77
2022/05/22 20:45:48;;;;;;;4.47;2.28;;;;;;;16.22;nan;100020.69;10455755;28;20123;-76
2022/05/22 20:50:52;;;;;;;4.53;1.80;;;;;;;16.22;nan;100034.22;10455566;28;20136;-76
2022/05/22 21:01:19;;;;;;;8.40;2.38;;;;;;;16.09;nan;100019.31;10436811;28;20049;-76
2022/05/22 21:06:23;;;;;;;5.32;2.20;;;;;;;16.05;nan;100012.56;10437388;28;20049;-77
2022/05/22 21:11:26;;;;;;;8.00;2.00;;;;;;;16.02;nan;100018.31;10467969;28;20490;-77
2022/05/22 21:16:29;;;;;;;4.93;1.88;;;;;;;15.96;nan;100016.25;10463533;28;20072;-76
2022/05/22 21:21:33;;;;;;;5.10;2.03;;;;;;;15.87;nan;100012.69;10455427;28;20144;-76
2022/05/22 21:31:59;;;;;;;3.38;1.77;;;;;;;15.70;nan;100005.59;10452141;28;20109;-76
2022/05/22 21:37:03;;;;;;;4.28;1.80;;;;;;;15.62;nan;100006.41;10509131;23;20044;-77
2022/05/22 21:42:08;;;;;;;4.45;1.98;;;;;;;15.56;nan;100000.81;10500920;28;20045;-78
2022/05/22 21:47:12;;;;;;;4.60;2.42;;;;;;;15.50;nan;99996.09;10499996;28;20049;-77
2022/05/22 21:52:16;;;;;;;7.57;2.40;;;;;;;15.42;nan;99986.06;10507844;28;20044;-77
2022/05/22 21:57:23;;;;;;;4.40;2.03;;;;;;;15.25;nan;99972.47;10503316;28;20124;-79
2022/05/22 22:02:28;;;;;;;5.28;1.83;;;;;;;15.19;nan;99981.25;10526870;28;20348;-77
2022/05/22 22:07:32;;;;;;;6.25;2.50;;;;;;;15.20;nan;99982.94;10511023;28;20056;-78
2022/05/22 22:12:36;;;;;;;3.72;2.00;;;;;;;15.09;nan;99971.56;10499994;28;20043;-78
2022/05/22 22:17:39;;;;;;;3.60;2.78;;;;;;;15.06;nan;99970.03;10498722;28;20048;-77
2022/05/22 22:22:43;;;;;;;7.25;2.30;;;;;;;15.05;nan;99971.03;10497856;28;20257;-78
2022/05/22 22:27:47;;;;;;;3.15;2.00;;;;;;;15.02;nan;99965.97;10498784;28;20049;-78
2022/05/22 22:32:51;;;;;;;6.30;2.22;;;;;;;14.95;nan;99962.22;10496408;28;20044;-78
2022/05/22 22:37:56;;;;;;;6.32;2.35;;;;;;;14.92;nan;99951.72;10495095;28;20052;-79
2022/05/22 22:43:01;;;;;;;5.20;2.22;;;;;;;14.91;nan;99947.31;10500766;28;20044;-76
2022/05/22 22:48:06;;;;;;;6.03;2.00;;;;;;;14.93;nan;99942.59;10529719;28;20044;-79
2022/05/22 22:53:10;;;;;;;2.95;2.25;;;;;;;14.82;nan;99941.88;10505464;28;20048;-79
2022/05/22 22:58:14;;;;;;;4.28;2.10;;;;;;;14.77;nan;99930.72;10501152;28;20059;-78
2022/05/22 23:03:17;;;;;;;4.75;2.33;;;;;;;14.70;nan;99926.09;10504736;28;20098;-79
2022/05/22 23:08:22;;;;;;;4.35;2.08;;;;;;;14.57;nan;99926.56;10505057;28;20048;-79
2022/05/22 23:13:26;;;;;;;6.22;2.38;;;;;;;14.61;nan;99922.53;10507250;28;20055;-78
2022/05/22 23:18:29;;;;;;;3.58;2.33;;;;;;;14.49;nan;99919.25;10504122;28;20055;-79
2022/05/22 23:23:33;;;;;;;3.97;2.20;;;;;;;14.46;nan;99911.47;10504481;28;20163;-77
2022/05/22 23:28:37;;;;;;;6.80;2.60;;;;;;;14.42;nan;99906.56;10504821;28;20059;-78
2022/05/22 23:33:40;;;;;;;4.82;2.08;;;;;;;14.43;nan;99902.88;10501335;28;20052;-79
2022/05/22 23:44:05;;;;;;;3.75;2.65;;;;;;;14.30;nan;99898.69;10504640;28;20051;-78
2022/05/22 23:49:08;;;;;;;3.92;2.13;;;;;;;14.31;nan;99892.28;10504070;28;20052;-79
2022/05/22 23:54:18;;;;;;;4.45;2.25;;;;;;;14.26;nan;99881.13;10501489;28;20048;-79
2022/05/22 23:59:21;;;;;;;2.45;2.20;;;;;;;14.26;nan;99880.25;10504337;28;20055;-77
